createdAt,value
2022-08-22T00:00:53.774Z,96989.66
2022-08-22T00:03:00.666Z,97053.38
2022-08-22T00:03:04.187Z,97089.78
2022-08-22T00:03:04.652Z,97069.38
2022-08-22T00:03:04.818Z,97110.47
2022-08-22T00:03:30.361Z,96982.16
2022-08-22T00:06:31.571Z,96984.34
2022-08-22T00:09:29.851Z,96979.78
2022-08-22T00:12:29.559Z,96974.47
2022-08-22T00:15:42.141Z,96974.00
2022-08-22T00:18:28.355Z,96971.94
2022-08-22T00:21:24.955Z,96972.75
2022-08-22T00:24:44.040Z,96973.06
2022-08-22T00:27:23.686Z,96972.25
2022-08-22T00:30:13.113Z,96975.84
2022-08-22T00:32:56.834Z,96976.19
2022-08-22T00:35:45.096Z,96975.56
2022-08-22T00:38:42.810Z,96969.75
2022-08-22T00:41:34.055Z,96970.09
2022-08-22T00:45:06.514Z,96970.56
2022-08-22T00:48:08.120Z,96968.34
2022-08-22T00:51:20.863Z,96965.38
2022-08-22T00:54:31.172Z,96966.28
2022-08-22T00:57:41.427Z,96969.59
2022-08-22T01:00:30.046Z,96965.53
2022-08-22T01:03:13.824Z,96964.13
2022-08-22T01:06:12.171Z,96974.63
2022-08-22T01:09:33.029Z,96964.09
2022-08-22T01:12:37.882Z,96969.13
2022-08-22T01:15:15.660Z,96968.03
2022-08-22T01:18:18.919Z,96974.91
2022-08-22T01:21:35.229Z,96970.84
2022-08-22T01:24:31.458Z,96968.31
2022-08-22T01:27:17.656Z,96968.50
2022-08-22T01:30:18.250Z,96970.84
2022-08-22T01:33:22.947Z,96971.16
2022-08-22T01:35:55.960Z,96966.00
2022-08-22T01:38:59.377Z,96971.63
2022-08-22T01:41:57.646Z,96975.56
2022-08-22T01:45:08.822Z,96976.97
2022-08-22T01:47:40.847Z,96973.66
2022-08-22T01:50:32.858Z,96976.63
2022-08-22T01:53:33.060Z,96971.00
2022-08-22T01:56:15.273Z,96966.00
2022-08-22T01:59:11.403Z,96962.22
2022-08-22T02:01:59.651Z,96963.47
2022-08-22T02:04:55.257Z,96971.63
2022-08-22T02:07:46.269Z,96971.16
2022-08-22T02:10:55.179Z,96970.84
2022-08-22T02:13:49.591Z,96974.00
2022-08-22T02:16:39.047Z,96976.97
2022-08-22T02:19:15.005Z,96971.94
2022-08-22T02:22:02.224Z,96961.28
2022-08-22T02:24:54.661Z,96954.84
2022-08-22T02:27:52.332Z,96963.31
2022-08-22T02:30:42.978Z,96962.06
2022-08-22T02:33:31.037Z,96957.84
2022-08-22T02:36:17.122Z,96962.22
2022-08-22T02:39:13.721Z,96962.53
2022-08-22T02:42:15.166Z,96964.25
2022-08-22T02:44:53.503Z,96969.91
2022-08-22T02:47:59.702Z,96968.50
2022-08-22T02:50:49.445Z,96963.31
2022-08-22T02:53:48.596Z,96956.75
2022-08-22T02:56:23.879Z,96950.94
2022-08-22T02:59:15.527Z,96949.34
2022-08-22T03:01:46.942Z,96945.44
2022-08-22T03:04:32.577Z,96949.50
2022-08-22T03:07:36.479Z,96948.44
2022-08-22T03:10:23.589Z,96945.59
2022-08-22T03:13:09.764Z,96945.28
2022-08-22T03:15:58.928Z,96940.59
2022-08-22T03:19:06.505Z,96947.19
2022-08-22T03:22:08.683Z,96951.56
2022-08-22T03:24:48.935Z,96955.47
2022-08-22T03:27:35.920Z,96958.63
2022-08-22T03:30:17.974Z,96960.16
2022-08-22T03:32:59.553Z,96959.88
2022-08-22T03:35:46.383Z,96953.41
2022-08-22T03:38:34.909Z,96960.66
2022-08-22T03:41:39.194Z,96959.41
2022-08-22T03:44:31.687Z,96960.16
2022-08-22T03:47:22.175Z,96963.94
2022-08-22T03:50:01.076Z,96962.84
2022-08-22T03:53:15.288Z,96969.13
2022-08-22T03:56:19.913Z,96973.97
2022-08-22T03:59:10.133Z,96976.34
2022-08-22T04:02:33.429Z,96973.19
2022-08-22T04:05:36.810Z,96973.03
2022-08-22T04:08:33.937Z,96971.31
2022-08-22T04:11:25.694Z,96976.50
2022-08-22T04:14:30.068Z,96979.00
2022-08-22T04:17:23.389Z,96976.16
2022-08-22T04:20:23.867Z,96982.13
2022-08-22T04:23:12.653Z,96977.75
2022-08-22T04:25:50.917Z,96980.41
2022-08-22T04:28:33.194Z,96979.47
2022-08-22T04:31:18.743Z,96983.25
2022-08-22T04:34:25.522Z,96988.56
2022-08-22T04:37:06.829Z,96975.25
2022-08-22T04:39:49.569Z,96983.41
2022-08-22T04:42:38.931Z,96986.88
2022-08-22T04:45:31.086Z,96990.47
2022-08-22T04:48:34.827Z,96993.94
2022-08-22T04:51:15.536Z,96991.72
2022-08-22T04:54:24.293Z,96997.53
2022-08-22T04:57:44.434Z,97001.47
2022-08-22T05:00:15.959Z,96996.75
2022-08-22T05:02:51.712Z,97007.75
2022-08-22T05:05:26.134Z,97001.31
2022-08-22T05:07:58.783Z,97000.03
2022-08-22T05:10:40.105Z,97000.06
2022-08-22T05:13:47.376Z,96995.34
2022-08-22T05:16:20.639Z,97006.94
2022-08-22T05:19:14.435Z,97001.28
2022-08-22T05:21:48.219Z,97006.63
2022-08-22T05:24:48.581Z,97004.72
2022-08-22T05:27:34.960Z,97005.38
2022-08-22T05:30:13.561Z,97012.56
2022-08-22T05:33:21.839Z,97007.84
2022-08-22T05:36:21.469Z,97014.28
2022-08-22T05:39:04.948Z,97009.75
2022-08-22T05:41:37.541Z,97008.50
2022-08-22T05:44:16.273Z,97004.72
2022-08-22T05:46:53.557Z,97008.63
2022-08-22T05:49:48.727Z,97002.72
2022-08-22T05:52:47.503Z,97006.47
2022-08-22T05:55:48.807Z,97017.16
2022-08-22T05:58:44.447Z,97009.91
2022-08-22T06:01:43.273Z,97016.19
2022-08-22T06:05:01.034Z,97020.75
2022-08-22T06:07:43.733Z,97019.81
2022-08-22T06:10:25.953Z,97023.56
2022-08-22T06:13:28.148Z,97026.88
2022-08-22T06:16:21.106Z,97030.16
2022-08-22T06:18:52.191Z,97020.91
2022-08-22T06:21:39.541Z,97024.38
2022-08-22T06:24:16.643Z,97029.06
2022-08-22T06:26:49.817Z,97024.53
2022-08-22T06:29:44.510Z,97023.88
2022-08-22T06:32:44.554Z,97035.81
2022-08-22T06:35:26.732Z,97043.03
2022-08-22T06:37:59.898Z,97046.16
2022-08-22T06:40:29.668Z,97057.94
2022-08-22T06:42:58.662Z,97047.38
2022-08-22T06:45:31.349Z,97047.06
2022-08-22T06:48:21.767Z,97051.03
2022-08-22T06:50:56.359Z,97048.50
2022-08-22T06:53:48.519Z,97050.81
2022-08-22T06:56:35.245Z,97053.47
2022-08-22T06:59:13.006Z,97059.16
2022-08-22T07:01:58.274Z,97058.03
2022-08-22T07:04:27.642Z,97064.19
2022-08-22T07:06:59.148Z,97064.69
2022-08-22T07:09:37.165Z,97070.16
2022-08-22T07:12:21.865Z,97062.31
2022-08-22T07:14:58.030Z,97063.91
2022-08-22T07:17:30.094Z,97056.03
2022-08-22T07:20:19.833Z,97058.25
2022-08-22T07:23:09.213Z,97054.97
2022-08-22T07:25:52.292Z,97057.31
2022-08-22T07:28:51.217Z,97060.44
2022-08-22T07:31:40.062Z,97058.09
2022-08-22T07:34:45.128Z,97064.06
2022-08-22T07:37:33.879Z,97072.22
2022-08-22T07:40:35.753Z,97061.22
2022-08-22T07:43:33.001Z,97068.44
2022-08-22T07:46:37.224Z,97072.03
2022-08-22T07:49:24.756Z,97061.38
2022-08-22T07:51:54.843Z,97061.56
2022-08-22T07:54:57.950Z,97058.38
2022-08-22T07:57:41.132Z,97062.31
2022-08-22T08:00:20.565Z,97061.88
2022-08-22T08:02:56.610Z,97069.06
2022-08-22T08:05:28.726Z,97068.44
2022-08-22T08:07:57.260Z,97059.19
2022-08-22T08:10:34.630Z,97070.19
2022-08-22T08:13:17.484Z,97067.81
2022-08-22T08:15:48.163Z,97074.09
2022-08-22T08:18:22.217Z,97068.44
2022-08-22T08:21:02.177Z,97073.63
2022-08-22T08:23:39.552Z,97058.38
2022-08-22T08:26:23.710Z,97063.72
2022-08-22T08:28:55.835Z,97071.72
2022-08-22T08:31:43.222Z,97069.06
2022-08-22T08:34:20.769Z,97064.47
2022-08-22T08:37:04.677Z,97074.53
2022-08-22T08:39:35.354Z,97070.31
2022-08-22T08:43:00.201Z,97068.59
2022-08-22T08:45:40.471Z,97065.78
2022-08-22T08:49:14.218Z,97068.59
2022-08-22T08:52:32.011Z,97068.44
2022-08-22T08:55:19.829Z,97070.00
2022-08-22T09:01:14.172Z,97064.91
2022-08-22T09:04:27.748Z,97062.56
2022-08-22T09:07:51.438Z,97068.84
2022-08-22T09:11:04.577Z,97066.34
2022-08-22T09:14:07.467Z,97069.59
2022-08-22T09:16:36.194Z,97076.03
2022-08-22T09:19:30.164Z,97076.69
2022-08-22T09:22:50.903Z,97082.84
2022-08-22T09:25:38.615Z,97077.03
2022-08-22T09:28:45.961Z,97083.94
2022-08-22T09:31:32.878Z,97079.22
2022-08-22T09:34:29.979Z,97082.81
2022-08-22T09:37:16.776Z,97085.16
2022-08-22T09:40:15.241Z,97066.53
2022-08-22T09:40:17.291Z,97080.75
2022-08-22T09:43:11.735Z,97090.63
2022-08-22T09:46:07.080Z,97086.84
2022-08-22T09:48:53.092Z,97088.59
2022-08-22T09:51:45.372Z,97088.03
2022-08-22T09:54:49.591Z,97093.34
2022-08-22T09:57:41.551Z,97102.91
2022-08-22T10:00:22.306Z,97099.41
2022-08-22T10:03:20.025Z,97102.34
2022-08-22T10:06:05.552Z,97098.91
2022-08-22T10:08:47.074Z,97106.34
2022-08-22T10:11:38.739Z,97098.78
2022-08-22T10:14:22.782Z,97108.22
2022-08-22T10:17:21.993Z,97100.97
2022-08-22T10:20:25.125Z,97103.34
2022-08-22T10:23:21.010Z,97099.84
2022-08-22T10:26:25.699Z,97114.31
2022-08-22T10:29:22.368Z,97104.56
2022-08-22T10:32:34.849Z,97104.88
2022-08-22T10:35:26.412Z,97115.88
2022-08-22T10:38:12.318Z,97107.13
2022-08-22T10:41:19.612Z,97103.72
2022-08-22T10:44:17.277Z,97111.56
2022-08-22T10:47:02.274Z,97108.69
2022-08-22T10:49:37.670Z,97109.28
2022-08-22T10:52:30.806Z,97105.34
2022-08-22T10:55:09.969Z,97101.16
2022-08-22T10:58:10.964Z,97100.78
2022-08-22T11:00:59.735Z,97103.13
2022-08-22T11:03:49.036Z,97102.34
2022-08-22T11:07:06.322Z,97103.66
2022-08-22T11:09:43.743Z,97098.69
2022-08-22T11:12:34.648Z,97100.16
2022-08-22T11:15:08.666Z,97105.28
2022-08-22T11:18:17.860Z,97106.31
2022-08-22T11:21:03.537Z,97108.19
2022-08-22T11:23:55.279Z,97113.03
2022-08-22T11:26:53.135Z,97107.34
2022-08-22T11:29:55.265Z,97111.66
2022-08-22T11:32:44.433Z,97098.69
2022-08-22T11:35:39.965Z,97096.53
2022-08-22T11:38:41.242Z,97096.19
2022-08-22T11:41:52.500Z,97095.44
2022-08-22T11:44:43.025Z,97099.06
2022-08-22T11:47:26.683Z,97107.97
2022-08-22T11:50:20.549Z,97101.19
2022-08-22T11:53:24.505Z,97099.06
2022-08-22T11:56:40.132Z,97109.31
2022-08-22T11:59:32.704Z,97107.56
2022-08-22T12:02:31.314Z,97102.59
2022-08-22T12:05:20.223Z,97100.47
2022-08-22T12:08:46.394Z,97104.38
2022-08-22T12:11:40.082Z,97101.19
2022-08-22T12:14:26.850Z,97110.97
2022-08-22T12:17:28.530Z,97108.88
2022-08-22T12:20:28.428Z,97110.91
2022-08-22T12:23:07.132Z,97108.78
2022-08-22T12:26:21.955Z,97103.06
2022-08-22T12:29:34.029Z,97103.66
2022-08-22T12:32:59.611Z,97104.63
2022-08-22T12:36:04.823Z,97101.44
2022-08-22T12:39:20.371Z,97096.84
2022-08-22T12:42:15.313Z,97089.03
2022-08-22T12:45:18.878Z,97094.38
2022-08-22T12:48:03.769Z,97082.53
2022-08-22T12:51:17.531Z,97091.25
2022-08-22T12:54:36.242Z,97083.13
2022-08-22T12:57:28.858Z,97084.91
2022-08-22T13:00:37.320Z,97094.97
2022-08-22T13:03:29.641Z,97089.72
2022-08-22T13:06:22.024Z,97092.94
2022-08-22T13:08:50.545Z,97098.53
2022-08-22T13:11:23.346Z,97096.06
2022-08-22T13:14:01.475Z,97097.34
2022-08-22T13:16:49.085Z,97098.59
2022-08-22T13:19:27.461Z,97099.00
2022-08-22T13:22:12.421Z,97100.53
2022-08-22T13:24:58.421Z,97105.69
2022-08-22T13:27:53.241Z,97105.53
2022-08-22T13:30:33.433Z,97098.31
2022-08-22T13:33:10.068Z,97090.22
2022-08-22T13:35:55.597Z,97091.59
2022-08-22T13:38:33.215Z,97087.88
2022-08-22T13:41:03.841Z,97089.47
2022-08-22T13:44:06.086Z,97086.63
2022-08-22T13:46:41.450Z,97081.16
2022-08-22T13:49:45.874Z,97094.25
2022-08-22T13:52:52.506Z,97096.31
2022-08-22T13:55:43.261Z,97089.78
2022-08-22T13:58:13.463Z,97088.06
2022-08-22T14:01:36.046Z,97088.50
2022-08-22T14:04:32.111Z,97097.50
2022-08-22T14:07:04.457Z,97095.13
2022-08-22T14:10:02.637Z,97088.34
2022-08-22T14:12:51.092Z,97096.63
2022-08-22T14:15:45.353Z,97093.56
2022-08-22T14:18:30.383Z,97088.97
2022-08-22T14:21:20.495Z,97094.19
2022-08-22T14:23:53.570Z,97089.69
2022-08-22T14:26:47.823Z,97085.84
2022-08-22T14:29:19.823Z,97084.88
2022-08-22T14:32:13.626Z,97086.00
2022-08-22T14:34:47.542Z,97090.47
2022-08-22T14:37:20.372Z,97093.69
2022-08-22T14:40:04.031Z,97096.50
2022-08-22T14:42:51.177Z,97096.28
2022-08-22T14:45:21.828Z,97100.09
2022-08-22T14:48:14.529Z,97103.53
2022-08-22T14:50:56.517Z,97102.91
2022-08-22T14:53:28.106Z,97104.81
2022-08-22T14:56:10.911Z,97103.88
2022-08-22T14:58:56.747Z,97107.66
2022-08-22T15:01:32.892Z,97095.53
2022-08-22T15:04:10.102Z,97093.38
2022-08-22T15:06:54.393Z,97098.69
2022-08-22T15:09:56.440Z,97097.06
2022-08-22T15:12:34.986Z,97099.25
2022-08-22T15:15:17.015Z,97092.03
2022-08-22T15:17:50.896Z,97100.56
2022-08-22T15:20:45.197Z,97102.47
2022-08-22T15:23:23.547Z,97103.91
2022-08-22T15:26:07.224Z,97107.38
2022-08-22T15:28:52.519Z,97108.44
2022-08-22T15:31:22.325Z,97105.81
2022-08-22T15:33:51.138Z,97096.38
2022-08-22T15:36:27.402Z,97096.19
2022-08-22T15:39:17.342Z,97098.59
2022-08-22T15:41:48.343Z,97099.63
2022-08-22T15:44:33.075Z,97101.97
2022-08-22T15:47:24.176Z,97107.66
2022-08-22T15:50:05.549Z,97111.78
2022-08-22T15:53:10.211Z,97104.22
2022-08-22T15:55:38.012Z,97102.66
2022-08-22T15:58:32.464Z,97103.16
2022-08-22T16:01:25.646Z,97103.00
2022-08-22T16:04:08.326Z,97104.47
2022-08-22T16:06:46.672Z,97104.31
2022-08-22T16:09:36.967Z,97105.88
2022-08-22T16:12:50.795Z,97107.59
2022-08-22T16:15:54.075Z,97104.31
2022-08-22T16:18:44.022Z,97103.38
2022-08-22T16:21:23.406Z,97103.81
2022-08-22T16:23:53.984Z,97098.97
2022-08-22T16:26:30.610Z,97103.63
2022-08-22T16:29:04.425Z,97103.81
2022-08-22T16:31:48.670Z,97098.16
2022-08-22T16:34:23.846Z,97102.41
2022-08-22T16:37:12.370Z,97095.94
2022-08-22T16:39:49.956Z,97103.38
2022-08-22T16:42:23.509Z,97111.38
2022-08-22T16:45:02.800Z,97101.59
2022-08-22T16:47:32.819Z,97103.38
2022-08-22T16:50:06.132Z,97106.97
2022-08-22T16:53:07.673Z,97114.66
2022-08-22T16:55:36.150Z,97116.09
2022-08-22T16:58:35.717Z,97121.72
2022-08-22T17:01:36.467Z,97110.75
2022-08-22T17:05:07.203Z,97109.16
2022-08-22T17:07:48.419Z,97102.72
2022-08-22T17:10:58.631Z,97105.75
2022-08-22T17:14:24.119Z,97105.25
2022-08-22T17:17:36.344Z,97109.81
2022-08-22T17:21:06.270Z,97095.19
2022-08-22T17:24:00.413Z,97101.28
2022-08-22T17:27:04.447Z,97093.31
2022-08-22T17:30:07.371Z,97097.56
2022-08-22T17:33:18.891Z,97094.91
2022-08-22T17:35:56.200Z,97079.50
2022-08-22T17:38:47.655Z,97081.22
2022-08-22T17:41:32.788Z,97073.22
2022-08-22T17:44:32.066Z,97079.34
2022-08-22T17:47:28.131Z,97078.41
2022-08-22T17:50:14.224Z,97075.59
2022-08-22T17:52:58.869Z,97084.84
2022-08-22T17:55:58.035Z,97091.00
2022-08-22T17:58:43.251Z,97102.16
2022-08-22T18:01:35.839Z,97105.59
2022-08-22T18:04:10.176Z,97123.00
2022-08-22T18:06:48.834Z,97131.00
2022-08-22T18:09:45.233Z,97139.19
2022-08-22T18:12:44.575Z,97143.56
2022-08-22T18:15:43.469Z,97139.47
2022-08-22T18:18:31.175Z,97134.13
2022-08-22T18:21:50.887Z,97114.53
2022-08-22T18:24:33.153Z,97122.38
2022-08-22T18:27:34.475Z,97122.06
2022-08-22T18:30:36.818Z,97119.22
2022-08-22T18:33:43.328Z,97118.28
2022-08-22T18:36:27.179Z,97125.69
2022-08-22T18:39:22.203Z,97123.00
2022-08-22T18:42:05.007Z,97113.94
2022-08-22T18:44:39.159Z,97114.09
2022-08-22T18:47:36.669Z,97110.63
2022-08-22T18:50:27.023Z,97110.63
2022-08-22T18:52:57.591Z,97106.66
2022-08-22T18:55:45.278Z,97110.75
2022-08-22T18:58:36.450Z,97113.88
2022-08-22T19:01:36.272Z,97115.66
2022-08-22T19:04:26.977Z,97119.41
2022-08-22T19:07:24.598Z,97116.25
2022-08-22T19:10:52.651Z,97113.13
2022-08-22T19:13:54.663Z,97109.69
2022-08-22T19:16:55.739Z,97098.22
2022-08-22T19:20:08.649Z,97097.56
2022-08-22T19:22:37.668Z,97103.69
2022-08-22T19:25:21.803Z,97110.75
2022-08-22T19:28:10.852Z,97111.56
2022-08-22T19:30:45.599Z,97111.88
2022-08-22T19:33:34.614Z,97106.97
2022-08-22T19:36:29.374Z,97103.03
2022-08-22T19:39:08.853Z,97106.66
2022-08-22T19:41:53.296Z,97105.72
2022-08-22T19:44:20.700Z,97107.50
2022-08-22T19:47:27.077Z,97100.25
2022-08-22T19:50:23.840Z,97101.97
2022-08-22T19:53:00.400Z,97106.53
2022-08-22T19:55:39.409Z,97109.69
2022-08-22T19:58:24.225Z,97110.63
2022-08-22T20:01:40.412Z,97115.47
2022-08-22T20:04:39.853Z,97111.88
2022-08-22T20:07:51.004Z,97114.53
2022-08-22T20:11:02.930Z,97113.88
2022-08-22T20:13:36.221Z,97108.72
2022-08-22T20:16:10.740Z,97105.72
2022-08-22T20:19:06.376Z,97097.75
2022-08-22T20:21:49.045Z,97094.13
2022-08-22T20:25:17.016Z,97121.94
2022-08-22T20:28:04.494Z,97152.09
2022-08-22T20:30:39.692Z,97176.44
2022-08-22T20:33:23.716Z,97110.66
2022-08-22T20:36:01.716Z,97121.78
2022-08-22T20:38:55.464Z,97111.56
2022-08-22T20:41:40.453Z,97107.66
2022-08-22T20:44:22.922Z,97096.97
2022-08-22T20:47:06.043Z,97090.56
2022-08-22T20:49:45.438Z,97095.56
2022-08-22T20:52:26.732Z,97112.19
2022-08-22T20:55:12.070Z,97115.47
2022-08-22T20:58:02.538Z,97120.66
2022-08-22T21:00:48.271Z,97111.38
2022-08-22T21:03:44.681Z,97109.03
2022-08-22T21:06:20.968Z,97099.59
2022-08-22T21:09:12.637Z,97097.91
2022-08-22T21:11:51.356Z,97097.09
2022-08-22T21:14:26.247Z,97081.25
2022-08-22T21:16:54.317Z,97066.97
2022-08-22T21:19:29.826Z,97062.72
2022-08-22T21:22:24.655Z,97049.34
2022-08-22T21:25:00.687Z,97048.91
2022-08-22T21:27:34.518Z,97038.34
2022-08-22T21:30:08.684Z,97030.34
2022-08-22T21:32:48.527Z,97032.25
2022-08-22T21:35:35.706Z,97028.16
2022-08-22T21:38:04.242Z,97034.91
2022-08-22T21:40:37.180Z,97036.16
2022-08-22T21:43:32.821Z,97042.28
2022-08-22T21:46:00.385Z,97040.72
2022-08-22T21:48:56.748Z,97038.19
2022-08-22T21:51:45.745Z,97031.44
2022-08-22T21:54:29.332Z,97036.97
2022-08-22T21:57:10.621Z,97032.22
2022-08-22T21:59:51.450Z,97022.00
2022-08-22T22:02:31.217Z,97024.88
2022-08-22T22:05:00.792Z,97027.50
2022-08-22T22:07:29.185Z,97020.63
2022-08-22T22:09:57.209Z,97009.66
2022-08-22T22:12:25.535Z,97007.94
2022-08-22T22:14:52.996Z,97010.94
2022-08-22T22:17:20.642Z,97007.94
2022-08-22T22:19:48.174Z,97001.47
2022-08-22T22:22:16.566Z,96995.38
2022-08-22T22:24:43.965Z,96999.75
2022-08-22T22:27:16.383Z,96999.28
2022-08-22T22:29:44.615Z,97006.22
2022-08-22T22:32:11.980Z,97000.13
2022-08-22T22:34:39.392Z,97000.53
2022-08-22T22:37:09.318Z,96997.28
2022-08-22T22:39:37.195Z,96994.91
2022-08-22T22:42:05.238Z,96993.03
2022-08-22T22:44:32.728Z,96996.78
2022-08-22T22:47:02.709Z,96999.13
2022-08-22T22:49:32.099Z,96990.78
2022-08-22T22:52:01.239Z,96988.31
2022-08-22T22:54:34.323Z,96997.63
2022-08-22T22:57:02.090Z,96995.25
2022-08-22T22:59:29.419Z,96993.66
2022-08-22T23:02:14.538Z,96991.19
2022-08-22T23:04:45.882Z,96987.09
2022-08-22T23:07:15.288Z,96987.84
2022-08-22T23:09:45.069Z,96995.75
2022-08-22T23:12:14.692Z,96994.47
2022-08-22T23:14:42.184Z,96997.91
2022-08-22T23:17:09.880Z,96990.84
2022-08-22T23:19:38.958Z,96985.66
2022-08-22T23:22:08.188Z,96981.91
2022-08-22T23:24:37.534Z,96984.59
2022-08-22T23:27:06.920Z,96991.34
2022-08-22T23:29:36.144Z,96988.81
2022-08-22T23:32:05.353Z,96999.00
2022-08-22T23:34:37.553Z,96988.31
2022-08-22T23:37:08.147Z,96987.84
2022-08-22T23:39:38.245Z,96986.91
2022-08-22T23:42:07.695Z,96987.69
2022-08-22T23:44:37.802Z,96992.69
2022-08-22T23:47:07.301Z,97005.91
2022-08-22T23:49:35.696Z,97008.72
2022-08-22T23:52:04.141Z,97007.81
2022-08-22T23:54:31.610Z,97008.25
2022-08-22T23:57:01.988Z,96997.59
2022-08-22T23:59:34.068Z,97008.44
